sensor_id;sensor_type;location;lat;lon;timestamp;temperature;humidity
16392;DHT22;8305;-33.882;151.134;2023-03-11T00:01:39;26.60;99.90
16392;DHT22;8305;-33.882;151.134;2023-03-11T00:04:10;26.80;99.90
16392;DHT22;8305;-33.882;151.134;2023-03-11T00:06:41;26.90;99.90
16392;DHT22;8305;-33.882;151.134;2023-03-11T00:09:12;27.00;99.90
16392;DHT22;8305;-33.882;151.134;2023-03-11T00:11:43;26.90;99.90
16392;DHT22;8305;-33.882;151.134;2023-03-11T00:14:15;27.00;99.90
16392;DHT22;8305;-33.882;151.134;2023-03-11T00:16:48;27.00;99.90
16392;DHT22;8305;-33.882;151.134;2023-03-11T00:19:20;27.00;99.90
16392;DHT22;8305;-33.882;151.134;2023-03-11T00:21:51;27.10;99.90
16392;DHT22;8305;-33.882;151.134;2023-03-11T00:24:22;27.20;99.90
16392;DHT22;8305;-33.882;151.134;2023-03-11T00:26:53;27.40;99.90
16392;DHT22;8305;-33.882;151.134;2023-03-11T00:29:24;27.50;99.90
16392;DHT22;8305;-33.882;151.134;2023-03-11T00:31:57;27.70;99.90
16392;DHT22;8305;-33.882;151.134;2023-03-11T00:34:28;27.70;99.90
16392;DHT22;8305;-33.882;151.134;2023-03-11T00:36:59;27.80;99.90
16392;DHT22;8305;-33.882;151.134;2023-03-11T00:39:30;27.90;99.90
16392;DHT22;8305;-33.882;151.134;2023-03-11T00:42:01;28.10;99.90
16392;DHT22;8305;-33.882;151.134;2023-03-11T00:44:34;28.20;99.90
16392;DHT22;8305;-33.882;151.134;2023-03-11T00:47:07;28.20;99.90
16392;DHT22;8305;-33.882;151.134;2023-03-11T00:49:38;28.40;99.90
16392;DHT22;8305;-33.882;151.134;2023-03-11T00:52:10;28.40;99.90
16392;DHT22;8305;-33.882;151.134;2023-03-11T00:54:41;28.50;99.90
16392;DHT22;8305;-33.882;151.134;2023-03-11T00:57:13;28.60;99.90
16392;DHT22;8305;-33.882;151.134;2023-03-11T00:59:44;28.70;99.90
16392;DHT22;8305;-33.882;151.134;2023-03-11T01:02:17;28.80;99.90
16392;DHT22;8305;-33.882;151.134;2023-03-11T01:04:51;28.90;99.90
16392;DHT22;8305;-33.882;151.134;2023-03-11T01:07:22;29.00;99.90
16392;DHT22;8305;-33.882;151.134;2023-03-11T01:09:53;29.00;99.90
16392;DHT22;8305;-33.882;151.134;2023-03-11T01:12:25;29.00;99.90
16392;DHT22;8305;-33.882;151.134;2023-03-11T01:14:56;29.20;99.90
16392;DHT22;8305;-33.882;151.134;2023-03-11T01:17:29;29.40;99.90
16392;DHT22;8305;-33.882;151.134;2023-03-11T01:20:00;29.40;99.90
16392;DHT22;8305;-33.882;151.134;2023-03-11T01:22:33;29.60;99.90
16392;DHT22;8305;-33.882;151.134;2023-03-11T01:25:04;29.60;99.90
16392;DHT22;8305;-33.882;151.134;2023-03-11T01:27:36;29.60;99.90
16392;DHT22;8305;-33.882;151.134;2023-03-11T01:30:09;29.70;99.90
16392;DHT22;8305;-33.882;151.134;2023-03-11T01:32:44;29.80;99.90
16392;DHT22;8305;-33.882;151.134;2023-03-11T01:35:17;29.80;99.90
16392;DHT22;8305;-33.882;151.134;2023-03-11T01:37:48;29.90;99.90
16392;DHT22;8305;-33.882;151.134;2023-03-11T01:40:23;30.00;99.90
16392;DHT22;8305;-33.882;151.134;2023-03-11T01:42:56;30.20;99.90
16392;DHT22;8305;-33.882;151.134;2023-03-11T01:45:39;30.30;99.90
16392;DHT22;8305;-33.882;151.134;2023-03-11T01:48:14;30.40;99.90
16392;DHT22;8305;-33.882;151.134;2023-03-11T01:50:47;30.50;99.90
16392;DHT22;8305;-33.882;151.134;2023-03-11T01:53:19;30.60;99.90
16392;DHT22;8305;-33.882;151.134;2023-03-11T01:55:51;30.70;99.90
16392;DHT22;8305;-33.882;151.134;2023-03-11T01:58:26;30.70;99.90
16392;DHT22;8305;-33.882;151.134;2023-03-11T02:00:58;30.50;99.90
16392;DHT22;8305;-33.882;151.134;2023-03-11T02:03:33;30.30;99.90
16392;DHT22;8305;-33.882;151.134;2023-03-11T02:06:06;30.30;99.90
16392;DHT22;8305;-33.882;151.134;2023-03-11T02:08:39;30.20;99.90
16392;DHT22;8305;-33.882;151.134;2023-03-11T02:11:14;30.10;99.90
16392;DHT22;8305;-33.882;151.134;2023-03-11T02:13:46;30.20;99.90
16392;DHT22;8305;-33.882;151.134;2023-03-11T02:16:18;30.40;99.90
16392;DHT22;8305;-33.882;151.134;2023-03-11T02:18:53;30.60;99.90
16392;DHT22;8305;-33.882;151.134;2023-03-11T02:21:25;30.60;99.90
16392;DHT22;8305;-33.882;151.134;2023-03-11T02:24:01;30.60;99.90
16392;DHT22;8305;-33.882;151.134;2023-03-11T02:26:38;30.70;99.90
16392;DHT22;8305;-33.882;151.134;2023-03-11T02:29:16;30.90;99.90
16392;DHT22;8305;-33.882;151.134;2023-03-11T02:31:48;31.00;99.90
16392;DHT22;8305;-33.882;151.134;2023-03-11T02:34:24;30.80;99.90
16392;DHT22;8305;-33.882;151.134;2023-03-11T02:36:55;30.90;99.90
16392;DHT22;8305;-33.882;151.134;2023-03-11T02:39:35;31.00;99.90
16392;DHT22;8305;-33.882;151.134;2023-03-11T02:42:10;31.00;99.90
16392;DHT22;8305;-33.882;151.134;2023-03-11T02:44:45;30.90;99.90
16392;DHT22;8305;-33.882;151.134;2023-03-11T02:47:20;31.10;99.90
16392;DHT22;8305;-33.882;151.134;2023-03-11T02:49:55;31.10;99.90
16392;DHT22;8305;-33.882;151.134;2023-03-11T02:52:28;31.00;99.90
16392;DHT22;8305;-33.882;151.134;2023-03-11T02:55:01;31.00;99.90
16392;DHT22;8305;-33.882;151.134;2023-03-11T02:57:34;31.00;99.90
16392;DHT22;8305;-33.882;151.134;2023-03-11T03:00:13;30.80;99.90
16392;DHT22;8305;-33.882;151.134;2023-03-11T03:02:44;30.80;99.90
16392;DHT22;8305;-33.882;151.134;2023-03-11T03:05:19;30.80;99.90
16392;DHT22;8305;-33.882;151.134;2023-03-11T03:07:51;30.70;99.90
16392;DHT22;8305;-33.882;151.134;2023-03-11T03:10:23;30.60;99.90
16392;DHT22;8305;-33.882;151.134;2023-03-11T03:12:54;30.60;99.90
16392;DHT22;8305;-33.882;151.134;2023-03-11T03:15:28;30.50;99.90
16392;DHT22;8305;-33.882;151.134;2023-03-11T03:17:59;30.50;99.90
16392;DHT22;8305;-33.882;151.134;2023-03-11T03:20:30;30.50;99.90
16392;DHT22;8305;-33.882;151.134;2023-03-11T03:23:02;30.60;99.90
16392;DHT22;8305;-33.882;151.134;2023-03-11T03:25:33;30.60;99.90
16392;DHT22;8305;-33.882;151.134;2023-03-11T03:28:04;30.70;99.90
16392;DHT22;8305;-33.882;151.134;2023-03-11T03:30:38;30.70;99.90
16392;DHT22;8305;-33.882;151.134;2023-03-11T03:33:09;30.60;99.90
16392;DHT22;8305;-33.882;151.134;2023-03-11T03:35:42;30.50;99.90
16392;DHT22;8305;-33.882;151.134;2023-03-11T03:38:13;30.30;99.90
16392;DHT22;8305;-33.882;151.134;2023-03-11T03:40:47;30.10;99.90
16392;DHT22;8305;-33.882;151.134;2023-03-11T03:43:18;30.00;99.90
16392;DHT22;8305;-33.882;151.134;2023-03-11T03:46:01;30.00;99.90
16392;DHT22;8305;-33.882;151.134;2023-03-11T03:48:33;30.20;99.90
16392;DHT22;8305;-33.882;151.134;2023-03-11T03:51:07;30.30;99.90
16392;DHT22;8305;-33.882;151.134;2023-03-11T03:53:39;30.20;99.90
16392;DHT22;8305;-33.882;151.134;2023-03-11T03:56:14;30.30;99.90
16392;DHT22;8305;-33.882;151.134;2023-03-11T03:58:46;30.20;99.90
16392;DHT22;8305;-33.882;151.134;2023-03-11T04:01:20;30.30;99.90
16392;DHT22;8305;-33.882;151.134;2023-03-11T04:03:51;30.20;99.90
16392;DHT22;8305;-33.882;151.134;2023-03-11T04:06:23;30.20;99.90
16392;DHT22;8305;-33.882;151.134;2023-03-11T04:08:55;30.20;99.90
16392;DHT22;8305;-33.882;151.134;2023-03-11T04:11:26;30.20;99.90
16392;DHT22;8305;-33.882;151.134;2023-03-11T04:13:57;30.30;99.90
16392;DHT22;8305;-33.882;151.134;2023-03-11T04:16:31;30.30;99.90
16392;DHT22;8305;-33.882;151.134;2023-03-11T04:19:02;30.10;99.90
16392;DHT22;8305;-33.882;151.134;2023-03-11T04:21:34;30.00;99.90
16392;DHT22;8305;-33.882;151.134;2023-03-11T04:24:05;30.00;99.90
16392;DHT22;8305;-33.882;151.134;2023-03-11T04:26:36;29.90;99.90
16392;DHT22;8305;-33.882;151.134;2023-03-11T04:29:07;29.90;99.90
16392;DHT22;8305;-33.882;151.134;2023-03-11T04:31:40;29.90;99.90
16392;DHT22;8305;-33.882;151.134;2023-03-11T04:34:11;29.70;99.90
16392;DHT22;8305;-33.882;151.134;2023-03-11T04:36:42;29.50;99.90
16392;DHT22;8305;-33.882;151.134;2023-03-11T04:39:15;29.50;99.90
16392;DHT22;8305;-33.882;151.134;2023-03-11T04:41:46;29.40;99.90
16392;DHT22;8305;-33.882;151.134;2023-03-11T04:44:17;29.40;99.90
16392;DHT22;8305;-33.882;151.134;2023-03-11T04:46:51;29.40;99.90
16392;DHT22;8305;-33.882;151.134;2023-03-11T04:49:22;29.40;99.90
16392;DHT22;8305;-33.882;151.134;2023-03-11T04:51:53;29.30;99.90
16392;DHT22;8305;-33.882;151.134;2023-03-11T04:54:24;29.30;99.90
16392;DHT22;8305;-33.882;151.134;2023-03-11T04:56:56;29.30;99.90
16392;DHT22;8305;-33.882;151.134;2023-03-11T04:59:27;29.30;99.90
16392;DHT22;8305;-33.882;151.134;2023-03-11T05:02:00;29.40;99.90
16392;DHT22;8305;-33.882;151.134;2023-03-11T05:04:31;29.20;99.90
16392;DHT22;8305;-33.882;151.134;2023-03-11T05:07:02;29.10;99.90
16392;DHT22;8305;-33.882;151.134;2023-03-11T05:09:35;28.90;99.90
16392;DHT22;8305;-33.882;151.134;2023-03-11T05:12:06;28.90;99.90
16392;DHT22;8305;-33.882;151.134;2023-03-11T05:14:37;28.90;99.90
16392;DHT22;8305;-33.882;151.134;2023-03-11T05:17:10;28.80;99.90
16392;DHT22;8305;-33.882;151.134;2023-03-11T05:19:42;28.60;99.90
16392;DHT22;8305;-33.882;151.134;2023-03-11T05:22:13;28.50;99.90
16392;DHT22;8305;-33.882;151.134;2023-03-11T05:24:44;28.50;99.90
16392;DHT22;8305;-33.882;151.134;2023-03-11T05:27:15;28.60;99.90
16392;DHT22;8305;-33.882;151.134;2023-03-11T05:29:48;28.40;99.90
16392;DHT22;8305;-33.882;151.134;2023-03-11T05:32:23;28.40;99.90
16392;DHT22;8305;-33.882;151.134;2023-03-11T05:34:54;28.40;99.90
16392;DHT22;8305;-33.882;151.134;2023-03-11T05:37:25;28.50;99.90
16392;DHT22;8305;-33.882;151.134;2023-03-11T05:39:56;28.50;99.90
16392;DHT22;8305;-33.882;151.134;2023-03-11T05:42:27;28.30;99.90
16392;DHT22;8305;-33.882;151.134;2023-03-11T05:44:58;28.30;99.90
16392;DHT22;8305;-33.882;151.134;2023-03-11T05:47:33;28.20;99.90
16392;DHT22;8305;-33.882;151.134;2023-03-11T05:50:06;28.20;99.90
16392;DHT22;8305;-33.882;151.134;2023-03-11T05:52:37;28.10;99.90
16392;DHT22;8305;-33.882;151.134;2023-03-11T05:55:09;28.10;99.90
16392;DHT22;8305;-33.882;151.134;2023-03-11T05:57:40;28.10;99.90
16392;DHT22;8305;-33.882;151.134;2023-03-11T06:00:12;28.00;99.90
16392;DHT22;8305;-33.882;151.134;2023-03-11T06:02:45;28.00;99.90
16392;DHT22;8305;-33.882;151.134;2023-03-11T06:05:17;27.90;99.90
16392;DHT22;8305;-33.882;151.134;2023-03-11T06:07:49;27.90;99.90
16392;DHT22;8305;-33.882;151.134;2023-03-11T06:10:21;27.90;99.90
16392;DHT22;8305;-33.882;151.134;2023-03-11T06:12:52;27.90;99.90
16392;DHT22;8305;-33.882;151.134;2023-03-11T06:15:23;27.90;99.90
16392;DHT22;8305;-33.882;151.134;2023-03-11T06:17:56;27.90;99.90
16392;DHT22;8305;-33.882;151.134;2023-03-11T06:20:27;27.80;99.90
16392;DHT22;8305;-33.882;151.134;2023-03-11T06:22:58;27.70;99.90
16392;DHT22;8305;-33.882;151.134;2023-03-11T06:25:29;27.70;99.90
16392;DHT22;8305;-33.882;151.134;2023-03-11T06:28:00;27.50;99.90
16392;DHT22;8305;-33.882;151.134;2023-03-11T06:30:31;27.50;99.90
16392;DHT22;8305;-33.882;151.134;2023-03-11T06:33:06;27.40;99.90
16392;DHT22;8305;-33.882;151.134;2023-03-11T06:35:37;27.40;99.90
16392;DHT22;8305;-33.882;151.134;2023-03-11T06:38:08;27.40;99.90
16392;DHT22;8305;-33.882;151.134;2023-03-11T06:40:39;27.30;99.90
16392;DHT22;8305;-33.882;151.134;2023-03-11T06:43:11;27.30;99.90
16392;DHT22;8305;-33.882;151.134;2023-03-11T06:45:43;27.40;99.90
16392;DHT22;8305;-33.882;151.134;2023-03-11T06:48:16;27.40;99.90
16392;DHT22;8305;-33.882;151.134;2023-03-11T06:50:54;27.40;99.90
16392;DHT22;8305;-33.882;151.134;2023-03-11T06:53:26;27.40;99.90
16392;DHT22;8305;-33.882;151.134;2023-03-11T06:56:01;27.40;99.90
16392;DHT22;8305;-33.882;151.134;2023-03-11T06:58:33;27.30;99.90
16392;DHT22;8305;-33.882;151.134;2023-03-11T07:01:05;27.20;99.90
16392;DHT22;8305;-33.882;151.134;2023-03-11T07:03:38;27.20;99.90
16392;DHT22;8305;-33.882;151.134;2023-03-11T07:06:13;27.10;99.90
16392;DHT22;8305;-33.882;151.134;2023-03-11T07:08:45;27.00;99.90
16392;DHT22;8305;-33.882;151.134;2023-03-11T07:11:18;27.00;99.90
16392;DHT22;8305;-33.882;151.134;2023-03-11T07:13:49;27.00;99.90
16392;DHT22;8305;-33.882;151.134;2023-03-11T07:16:21;27.00;99.90
16392;DHT22;8305;-33.882;151.134;2023-03-11T07:18:56;26.90;99.90
16392;DHT22;8305;-33.882;151.134;2023-03-11T07:21:28;26.90;99.90
16392;DHT22;8305;-33.882;151.134;2023-03-11T07:24:01;26.80;99.90
16392;DHT22;8305;-33.882;151.134;2023-03-11T07:26:33;26.70;99.90
16392;DHT22;8305;-33.882;151.134;2023-03-11T07:29:04;26.70;99.90
16392;DHT22;8305;-33.882;151.134;2023-03-11T07:31:35;26.60;99.90
16392;DHT22;8305;-33.882;151.134;2023-03-11T07:34:12;26.50;99.90
16392;DHT22;8305;-33.882;151.134;2023-03-11T07:36:43;26.50;99.90
16392;DHT22;8305;-33.882;151.134;2023-03-11T07:39:21;26.50;99.90
16392;DHT22;8305;-33.882;151.134;2023-03-11T07:41:52;26.50;99.90
16392;DHT22;8305;-33.882;151.134;2023-03-11T07:44:23;26.40;99.90
16392;DHT22;8305;-33.882;151.134;2023-03-11T07:46:54;26.40;99.90
16392;DHT22;8305;-33.882;151.134;2023-03-11T07:49:27;26.40;99.90
16392;DHT22;8305;-33.882;151.134;2023-03-11T07:51:58;26.40;99.90
16392;DHT22;8305;-33.882;151.134;2023-03-11T07:54:29;26.30;99.90
16392;DHT22;8305;-33.882;151.134;2023-03-11T07:57:00;26.30;99.90
16392;DHT22;8305;-33.882;151.134;2023-03-11T07:59:31;26.30;99.90
16392;DHT22;8305;-33.882;151.134;2023-03-11T08:02:03;26.30;99.90
16392;DHT22;8305;-33.882;151.134;2023-03-11T08:04:36;26.30;99.90
16392;DHT22;8305;-33.882;151.134;2023-03-11T08:07:07;26.20;99.90
16392;DHT22;8305;-33.882;151.134;2023-03-11T08:09:38;26.20;99.90
16392;DHT22;8305;-33.882;151.134;2023-03-11T08:12:09;26.20;99.90
16392;DHT22;8305;-33.882;151.134;2023-03-11T08:14:40;26.20;99.90
16392;DHT22;8305;-33.882;151.134;2023-03-11T08:17:12;26.20;99.90
16392;DHT22;8305;-33.882;151.134;2023-03-11T08:19:44;26.20;99.90
16392;DHT22;8305;-33.882;151.134;2023-03-11T08:22:18;26.20;99.90
16392;DHT22;8305;-33.882;151.134;2023-03-11T08:24:51;26.20;99.90
16392;DHT22;8305;-33.882;151.134;2023-03-11T08:27:23;26.20;99.90
16392;DHT22;8305;-33.882;151.134;2023-03-11T08:29:54;26.10;99.90
16392;DHT22;8305;-33.882;151.134;2023-03-11T08:32:25;26.10;99.90
16392;DHT22;8305;-33.882;151.134;2023-03-11T08:35:00;26.10;99.90
16392;DHT22;8305;-33.882;151.134;2023-03-11T08:37:34;26.10;99.90
16392;DHT22;8305;-33.882;151.134;2023-03-11T08:40:06;26.00;99.90
16392;DHT22;8305;-33.882;151.134;2023-03-11T08:42:44;26.00;99.90
16392;DHT22;8305;-33.882;151.134;2023-03-11T08:45:15;26.00;99.90
16392;DHT22;8305;-33.882;151.134;2023-03-11T08:47:46;25.90;99.90
16392;DHT22;8305;-33.882;151.134;2023-03-11T08:50:22;25.90;99.90
16392;DHT22;8305;-33.882;151.134;2023-03-11T08:52:53;25.90;99.90
16392;DHT22;8305;-33.882;151.134;2023-03-11T08:55:27;25.90;99.90
16392;DHT22;8305;-33.882;151.134;2023-03-11T08:57:59;25.80;99.90
16392;DHT22;8305;-33.882;151.134;2023-03-11T09:00:31;25.80;99.90
16392;DHT22;8305;-33.882;151.134;2023-03-11T09:03:02;25.80;99.90
16392;DHT22;8305;-33.882;151.134;2023-03-11T09:05:35;25.80;99.90
16392;DHT22;8305;-33.882;151.134;2023-03-11T09:08:06;25.70;99.90
16392;DHT22;8305;-33.882;151.134;2023-03-11T09:10:37;25.70;99.90
16392;DHT22;8305;-33.882;151.134;2023-03-11T09:13:08;25.70;99.90
16392;DHT22;8305;-33.882;151.134;2023-03-11T09:15:41;25.70;99.90
16392;DHT22;8305;-33.882;151.134;2023-03-11T09:18:13;25.70;99.90
16392;DHT22;8305;-33.882;151.134;2023-03-11T09:20:46;25.70;99.90
16392;DHT22;8305;-33.882;151.134;2023-03-11T09:23:18;25.70;99.90
16392;DHT22;8305;-33.882;151.134;2023-03-11T09:25:49;25.60;99.90
16392;DHT22;8305;-33.882;151.134;2023-03-11T09:28:20;25.60;99.90
16392;DHT22;8305;-33.882;151.134;2023-03-11T09:30:51;25.60;99.90
16392;DHT22;8305;-33.882;151.134;2023-03-11T09:33:23;25.60;99.90
16392;DHT22;8305;-33.882;151.134;2023-03-11T09:35:57;25.60;99.90
16392;DHT22;8305;-33.882;151.134;2023-03-11T09:38:30;25.60;99.90
16392;DHT22;8305;-33.882;151.134;2023-03-11T09:41:03;25.60;99.90
16392;DHT22;8305;-33.882;151.134;2023-03-11T09:43:50;25.50;99.90
16392;DHT22;8305;-33.882;151.134;2023-03-11T09:46:35;25.50;99.90
16392;DHT22;8305;-33.882;151.134;2023-03-11T09:49:15;25.40;99.90
16392;DHT22;8305;-33.882;151.134;2023-03-11T09:51:56;25.40;99.90
16392;DHT22;8305;-33.882;151.134;2023-03-11T09:54:30;25.40;99.90
16392;DHT22;8305;-33.882;151.134;2023-03-11T09:57:05;25.40;99.90
16392;DHT22;8305;-33.882;151.134;2023-03-11T09:59:37;25.40;99.90
16392;DHT22;8305;-33.882;151.134;2023-03-11T10:02:14;25.40;99.90
16392;DHT22;8305;-33.882;151.134;2023-03-11T10:04:50;25.30;99.90
16392;DHT22;8305;-33.882;151.134;2023-03-11T10:07:26;25.30;99.90
16392;DHT22;8305;-33.882;151.134;2023-03-11T10:09:58;25.30;99.90
16392;DHT22;8305;-33.882;151.134;2023-03-11T10:12:42;25.30;99.90
16392;DHT22;8305;-33.882;151.134;2023-03-11T10:15:21;25.30;99.90
16392;DHT22;8305;-33.882;151.134;2023-03-11T10:18:13;25.30;99.90
16392;DHT22;8305;-33.882;151.134;2023-03-11T10:20:51;25.20;99.90
16392;DHT22;8305;-33.882;151.134;2023-03-11T10:23:36;25.30;99.90
16392;DHT22;8305;-33.882;151.134;2023-03-11T10:26:14;25.20;99.90
16392;DHT22;8305;-33.882;151.134;2023-03-11T10:28:50;25.30;99.90
16392;DHT22;8305;-33.882;151.134;2023-03-11T10:31:28;25.30;99.90
16392;DHT22;8305;-33.882;151.134;2023-03-11T10:34:03;25.30;99.90
16392;DHT22;8305;-33.882;151.134;2023-03-11T10:36:39;25.20;99.90
16392;DHT22;8305;-33.882;151.134;2023-03-11T10:39:14;25.20;99.90
16392;DHT22;8305;-33.882;151.134;2023-03-11T10:41:49;25.20;99.90
16392;DHT22;8305;-33.882;151.134;2023-03-11T10:44:25;25.20;99.90
16392;DHT22;8305;-33.882;151.134;2023-03-11T10:46:58;25.20;99.90
16392;DHT22;8305;-33.882;151.134;2023-03-11T10:49:29;25.20;99.90
16392;DHT22;8305;-33.882;151.134;2023-03-11T10:52:03;25.10;99.90
16392;DHT22;8305;-33.882;151.134;2023-03-11T10:54:38;25.10;99.90
16392;DHT22;8305;-33.882;151.134;2023-03-11T10:57:24;25.10;99.90
16392;DHT22;8305;-33.882;151.134;2023-03-11T10:59:59;25.10;99.90
16392;DHT22;8305;-33.882;151.134;2023-03-11T11:02:39;25.00;99.90
16392;DHT22;8305;-33.882;151.134;2023-03-11T11:05:26;25.00;99.90
16392;DHT22;8305;-33.882;151.134;2023-03-11T11:08:12;25.00;99.90
16392;DHT22;8305;-33.882;151.134;2023-03-11T11:10:52;25.00;99.90
16392;DHT22;8305;-33.882;151.134;2023-03-11T11:13:25;24.90;99.90
16392;DHT22;8305;-33.882;151.134;2023-03-11T11:15:58;24.90;99.90
16392;DHT22;8305;-33.882;151.134;2023-03-11T11:18:32;24.90;99.90
16392;DHT22;8305;-33.882;151.134;2023-03-11T11:21:06;24.90;99.90
16392;DHT22;8305;-33.882;151.134;2023-03-11T11:23:41;24.80;99.90
16392;DHT22;8305;-33.882;151.134;2023-03-11T11:26:22;24.80;99.90
16392;DHT22;8305;-33.882;151.134;2023-03-11T11:29:06;24.80;99.90
16392;DHT22;8305;-33.882;151.134;2023-03-11T11:31:38;24.80;99.90
16392;DHT22;8305;-33.882;151.134;2023-03-11T11:34:28;24.80;99.90
16392;DHT22;8305;-33.882;151.134;2023-03-11T11:37:00;24.80;99.90
16392;DHT22;8305;-33.882;151.134;2023-03-11T11:39:38;24.80;99.90
16392;DHT22;8305;-33.882;151.134;2023-03-11T11:42:22;24.80;99.90
16392;DHT22;8305;-33.882;151.134;2023-03-11T11:44:59;24.80;99.90
16392;DHT22;8305;-33.882;151.134;2023-03-11T11:47:35;24.80;99.90
16392;DHT22;8305;-33.882;151.134;2023-03-11T11:50:14;24.80;99.90
16392;DHT22;8305;-33.882;151.134;2023-03-11T11:52:51;24.80;99.90
16392;DHT22;8305;-33.882;151.134;2023-03-11T11:55:25;24.80;99.90
16392;DHT22;8305;-33.882;151.134;2023-03-11T11:57:59;24.80;99.90
16392;DHT22;8305;-33.882;151.134;2023-03-11T12:00:39;24.80;99.90
16392;DHT22;8305;-33.882;151.134;2023-03-11T12:06:16;24.90;99.90
16392;DHT22;8305;-33.882;151.134;2023-03-11T12:08:59;24.90;99.90
16392;DHT22;8305;-33.882;151.134;2023-03-11T12:11:37;24.90;99.90
16392;DHT22;8305;-33.882;151.134;2023-03-11T12:14:14;24.90;99.90
16392;DHT22;8305;-33.882;151.134;2023-03-11T12:16:53;24.90;99.90
16392;DHT22;8305;-33.882;151.134;2023-03-11T12:19:34;24.90;99.90
16392;DHT22;8305;-33.882;151.134;2023-03-11T12:22:25;24.90;99.90
16392;DHT22;8305;-33.882;151.134;2023-03-11T12:25:11;24.90;99.90
16392;DHT22;8305;-33.882;151.134;2023-03-11T12:27:51;24.80;99.90
16392;DHT22;8305;-33.882;151.134;2023-03-11T12:30:27;24.80;99.90
16392;DHT22;8305;-33.882;151.134;2023-03-11T12:33:02;24.80;99.90
16392;DHT22;8305;-33.882;151.134;2023-03-11T12:35:34;24.70;99.90
16392;DHT22;8305;-33.882;151.134;2023-03-11T12:38:14;24.60;99.90
16392;DHT22;8305;-33.882;151.134;2023-03-11T12:40:59;24.60;99.90
16392;DHT22;8305;-33.882;151.134;2023-03-11T12:47:18;24.40;99.90
16392;DHT22;8305;-33.882;151.134;2023-03-11T12:49:50;24.30;99.90
16392;DHT22;8305;-33.882;151.134;2023-03-11T12:52:28;24.30;99.90
16392;DHT22;8305;-33.882;151.134;2023-03-11T12:55:29;24.30;99.90
16392;DHT22;8305;-33.882;151.134;2023-03-11T12:58:29;24.30;99.90
16392;DHT22;8305;-33.882;151.134;2023-03-11T13:04:14;24.20;99.90
16392;DHT22;8305;-33.882;151.134;2023-03-11T13:10:01;24.10;99.90
16392;DHT22;8305;-33.882;151.134;2023-03-11T13:12:42;24.20;99.90
16392;DHT22;8305;-33.882;151.134;2023-03-11T13:15:34;24.20;99.90
16392;DHT22;8305;-33.882;151.134;2023-03-11T13:18:17;24.20;99.90
16392;DHT22;8305;-33.882;151.134;2023-03-11T13:20:58;24.20;99.90
16392;DHT22;8305;-33.882;151.134;2023-03-11T13:23:31;24.10;99.90
16392;DHT22;8305;-33.882;151.134;2023-03-11T13:26:35;24.10;99.90
16392;DHT22;8305;-33.882;151.134;2023-03-11T13:29:38;24.20;99.90
16392;DHT22;8305;-33.882;151.134;2023-03-11T13:32:48;24.10;99.90
16392;DHT22;8305;-33.882;151.134;2023-03-11T13:35:39;24.20;99.90
16392;DHT22;8305;-33.882;151.134;2023-03-11T13:38:53;24.20;99.90
16392;DHT22;8305;-33.882;151.134;2023-03-11T13:41:31;24.10;99.90
16392;DHT22;8305;-33.882;151.134;2023-03-11T13:44:12;24.10;99.90
16392;DHT22;8305;-33.882;151.134;2023-03-11T13:46:46;24.10;99.90
16392;DHT22;8305;-33.882;151.134;2023-03-11T13:49:27;24.10;99.90
16392;DHT22;8305;-33.882;151.134;2023-03-11T13:52:02;24.10;99.90
16392;DHT22;8305;-33.882;151.134;2023-03-11T13:54:44;24.10;99.90
16392;DHT22;8305;-33.882;151.134;2023-03-11T13:57:27;24.10;99.90
16392;DHT22;8305;-33.882;151.134;2023-03-11T14:00:05;24.10;99.90
16392;DHT22;8305;-33.882;151.134;2023-03-11T14:02:46;24.10;99.90
16392;DHT22;8305;-33.882;151.134;2023-03-11T14:05:23;24.10;99.90
16392;DHT22;8305;-33.882;151.134;2023-03-11T14:07:54;24.10;99.90
16392;DHT22;8305;-33.882;151.134;2023-03-11T14:10:52;24.10;99.90
16392;DHT22;8305;-33.882;151.134;2023-03-11T14:13:25;24.00;99.90
16392;DHT22;8305;-33.882;151.134;2023-03-11T14:16:01;24.00;99.90
16392;DHT22;8305;-33.882;151.134;2023-03-11T14:18:37;23.90;99.90
16392;DHT22;8305;-33.882;151.134;2023-03-11T14:21:13;23.90;99.90
16392;DHT22;8305;-33.882;151.134;2023-03-11T14:23:45;23.80;99.90
16392;DHT22;8305;-33.882;151.134;2023-03-11T14:26:21;23.70;99.90
16392;DHT22;8305;-33.882;151.134;2023-03-11T14:28:56;23.70;99.90
16392;DHT22;8305;-33.882;151.134;2023-03-11T14:31:33;23.70;99.90
16392;DHT22;8305;-33.882;151.134;2023-03-11T14:34:12;23.60;99.90
16392;DHT22;8305;-33.882;151.134;2023-03-11T14:36:44;23.60;99.90
16392;DHT22;8305;-33.882;151.134;2023-03-11T14:39:25;23.60;99.90
16392;DHT22;8305;-33.882;151.134;2023-03-11T14:42:03;23.60;99.90
16392;DHT22;8305;-33.882;151.134;2023-03-11T14:44:39;23.60;99.90
16392;DHT22;8305;-33.882;151.134;2023-03-11T14:47:13;23.60;99.90
16392;DHT22;8305;-33.882;151.134;2023-03-11T14:49:47;23.50;99.90
16392;DHT22;8305;-33.882;151.134;2023-03-11T14:52:22;23.60;99.90
16392;DHT22;8305;-33.882;151.134;2023-03-11T14:54:56;23.50;99.90
16392;DHT22;8305;-33.882;151.134;2023-03-11T14:57:36;23.50;99.90
16392;DHT22;8305;-33.882;151.134;2023-03-11T15:00:13;23.60;99.90
16392;DHT22;8305;-33.882;151.134;2023-03-11T15:02:55;23.50;99.90
16392;DHT22;8305;-33.882;151.134;2023-03-11T15:05:35;23.50;99.90
16392;DHT22;8305;-33.882;151.134;2023-03-11T15:08:08;23.40;99.90
16392;DHT22;8305;-33.882;151.134;2023-03-11T15:10:39;23.40;99.90
16392;DHT22;8305;-33.882;151.134;2023-03-11T15:13:32;23.40;99.90
16392;DHT22;8305;-33.882;151.134;2023-03-11T15:16:05;23.40;99.90
16392;DHT22;8305;-33.882;151.134;2023-03-11T15:18:37;23.40;99.90
16392;DHT22;8305;-33.882;151.134;2023-03-11T15:21:14;23.40;99.90
16392;DHT22;8305;-33.882;151.134;2023-03-11T15:23:46;23.40;99.90
16392;DHT22;8305;-33.882;151.134;2023-03-11T15:26:20;23.40;99.90
16392;DHT22;8305;-33.882;151.134;2023-03-11T15:28:59;23.40;99.90
16392;DHT22;8305;-33.882;151.134;2023-03-11T15:31:32;23.40;99.90
16392;DHT22;8305;-33.882;151.134;2023-03-11T15:34:24;23.40;99.90
16392;DHT22;8305;-33.882;151.134;2023-03-11T15:37:01;23.40;99.90
16392;DHT22;8305;-33.882;151.134;2023-03-11T15:39:44;23.30;99.90
16392;DHT22;8305;-33.882;151.134;2023-03-11T15:42:24;23.40;99.90
16392;DHT22;8305;-33.882;151.134;2023-03-11T15:45:20;23.30;99.90
16392;DHT22;8305;-33.882;151.134;2023-03-11T15:47:51;23.30;99.90
16392;DHT22;8305;-33.882;151.134;2023-03-11T15:50:23;23.30;99.90
16392;DHT22;8305;-33.882;151.134;2023-03-11T15:52:56;23.30;99.90
16392;DHT22;8305;-33.882;151.134;2023-03-11T15:55:27;23.30;99.90
16392;DHT22;8305;-33.882;151.134;2023-03-11T15:58:02;23.30;99.90
16392;DHT22;8305;-33.882;151.134;2023-03-11T16:00:36;23.30;99.90
16392;DHT22;8305;-33.882;151.134;2023-03-11T16:03:07;23.30;99.90